Time;durP1;ratioP1;P1;durP2;ratioP2;P2;SDS_P1;SDS_P2;PMS_P1;PMS_P2;Temp;Humidity;BMP_temperature;BMP_pressure;BME280_temperature;BME280_humidity;BME280_pressure;Samples;Min_cycle;Max_cycle;Signal;HPM_P1;HPM_P2
2021/09/04 00:00:12;;;;;;;12.13;9.37;;;;;;;12.08;100.00;96377.59;5081652;28;20032;-79
2021/09/04 00:02:38;;;;;;;;;;;;;;;11.99;100.00;96382.03;5063977;28;20048;-79
2021/09/04 00:05:07;;;;;;;12.73;9.27;;;;;;;11.93;100.00;96382.66;5077513;28;19950;-79
2021/09/04 00:07:33;;;;;;;13.73;9.73;;;;;;;11.90;100.00;96387.44;5075125;28;20025;-79
2021/09/04 00:10:02;;;;;;;12.73;10.13;;;;;;;11.83;100.00;96381.97;5068184;28;20028;-81
2021/09/04 00:12:29;;;;;;;15.03;9.63;;;;;;;11.86;100.00;96379.03;5063454;28;20031;-79
2021/09/04 00:14:56;;;;;;;13.00;9.60;;;;;;;11.88;100.00;96382.34;5082669;28;20020;-79
2021/09/04 00:17:22;;;;;;;12.97;9.23;;;;;;;11.92;100.00;96375.75;5061797;28;20066;-80
2021/09/04 00:19:48;;;;;;;15.80;9.67;;;;;;;11.93;100.00;96371.31;5081036;28;20100;-81
2021/09/04 00:22:13;;;;;;;13.23;9.00;;;;;;;11.83;100.00;96367.97;5063995;28;20033;-79
2021/09/04 00:24:39;;;;;;;13.40;9.90;;;;;;;11.71;100.00;96367.50;5076205;28;20557;-79
2021/09/04 00:27:08;;;;;;;11.40;8.50;;;;;;;11.65;100.00;96363.69;5079677;28;20025;-79
2021/09/04 00:29:35;;;;;;;13.90;8.77;;;;;;;11.62;100.00;96358.75;5069937;28;20031;-78
2021/09/04 00:32:02;;;;;;;14.80;8.93;;;;;;;11.55;100.00;96365.66;5082896;28;20143;-79
2021/09/04 00:34:28;;;;;;;11.60;7.77;;;;;;;11.50;100.00;96360.88;5080147;28;20031;-79
2021/09/04 00:36:54;;;;;;;12.33;7.70;;;;;;;11.49;100.00;96367.09;5078827;28;20029;-79
2021/09/04 00:39:19;;;;;;;11.53;8.03;;;;;;;11.53;100.00;96363.16;5067799;28;20669;-79
2021/09/04 00:41:45;;;;;;;12.57;9.17;;;;;;;11.49;100.00;96364.47;5077003;28;20032;-78
2021/09/04 00:44:19;;;;;;;14.23;8.17;;;;;;;11.48;100.00;96364.66;5074106;28;20126;-79
2021/09/04 00:46:45;;;;;;;15.53;8.37;;;;;;;11.45;100.00;96357.88;5073232;28;20039;-79
2021/09/04 00:49:12;;;;;;;11.77;8.17;;;;;;;11.47;100.00;96357.75;5072734;28;20017;-78
2021/09/04 00:51:38;;;;;;;12.00;7.90;;;;;;;11.39;100.00;96361.16;5079526;28;20032;-79
2021/09/04 00:54:05;;;;;;;13.60;8.13;;;;;;;11.42;100.00;96363.47;5062442;28;20494;-79
2021/09/04 00:56:31;;;;;;;11.93;8.13;;;;;;;11.38;100.00;96356.06;5079961;28;20055;-78
2021/09/04 00:59:05;;;;;;;15.30;8.30;;;;;;;11.36;100.00;96363.28;5078832;28;20102;-79
2021/09/04 01:01:30;;;;;;;12.57;7.93;;;;;;;11.35;100.00;96359.84;5076946;28;20024;-79
2021/09/04 01:03:56;;;;;;;13.77;8.30;;;;;;;11.28;100.00;96361.47;5083838;28;20027;-78
2021/09/04 01:06:22;;;;;;;15.50;8.80;;;;;;;11.20;100.00;96362.28;5063339;28;20453;-78
2021/09/04 01:08:48;;;;;;;12.17;8.10;;;;;;;11.13;100.00;96369.16;5077868;28;20039;-78
2021/09/04 01:11:15;;;;;;;11.87;8.23;;;;;;;11.10;100.00;96366.84;5063058;28;20202;-77
2021/09/04 01:13:42;;;;;;;11.63;8.47;;;;;;;11.11;100.00;96359.78;5075150;28;20020;-78
2021/09/04 01:16:08;;;;;;;11.03;8.50;;;;;;;11.09;100.00;96360.75;5045779;28;20033;-78
2021/09/04 01:18:34;;;;;;;11.87;8.53;;;;;;;11.14;100.00;96357.66;5077617;28;20082;-77
2021/09/04 01:21:01;;;;;;;12.97;8.03;;;;;;;11.27;100.00;96354.56;5073316;28;20059;-77
2021/09/04 01:23:27;;;;;;;14.50;9.10;;;;;;;11.23;100.00;96348.81;5053009;28;20024;-77
2021/09/04 01:25:54;;;;;;;12.20;8.57;;;;;;;11.15;100.00;96353.22;5078509;28;20077;-77
2021/09/04 01:28:21;;;;;;;13.93;8.70;;;;;;;11.17;100.00;96348.63;5054049;28;20024;-77
2021/09/04 01:30:47;;;;;;;12.23;9.03;;;;;;;11.18;100.00;96348.44;5052679;28;20029;-77
2021/09/04 01:33:13;;;;;;;13.27;9.33;;;;;;;11.14;100.00;96352.38;5055483;28;20742;-77
2021/09/04 01:35:39;;;;;;;14.97;9.60;;;;;;;11.16;100.00;96345.13;5076875;28;20028;-78
2021/09/04 01:38:05;;;;;;;12.07;8.20;;;;;;;11.22;100.00;96335.78;5071887;28;20042;-78
2021/09/04 01:40:31;;;;;;;15.00;8.53;;;;;;;11.26;100.00;96339.75;5077526;28;20039;-77
2021/09/04 01:42:57;;;;;;;13.10;8.50;;;;;;;11.27;100.00;96333.50;5071936;28;20078;-78
2021/09/04 01:45:23;;;;;;;11.70;7.80;;;;;;;11.19;100.00;96336.09;5077139;28;20036;-78
2021/09/04 01:47:49;;;;;;;11.63;7.67;;;;;;;11.08;100.00;96339.84;5064130;28;20036;-77
2021/09/04 01:50:15;;;;;;;12.63;8.50;;;;;;;10.98;100.00;96334.72;5072022;28;20143;-78
2021/09/04 01:52:42;;;;;;;11.77;8.20;;;;;;;10.85;100.00;96334.34;5057035;28;20024;-78
2021/09/04 01:55:11;;;;;;;13.00;9.00;;;;;;;10.87;100.00;96336.84;5064142;28;20521;-77
2021/09/04 01:57:37;;;;;;;11.30;8.67;;;;;;;10.92;100.00;96330.09;5061559;28;20437;-77
2021/09/04 02:00:05;;;;;;;13.63;9.17;;;;;;;10.96;100.00;96325.34;5068103;28;20108;-77
2021/09/04 02:02:38;;;;;;;11.30;7.97;;;;;;;10.94;100.00;96322.88;5069125;28;20021;-77
2021/09/04 02:05:05;;;;;;;11.13;8.20;;;;;;;10.97;100.00;96317.31;5073985;28;20028;-77
2021/09/04 02:07:30;;;;;;;13.33;9.50;;;;;;;10.93;100.00;96321.25;5077761;28;20020;-77
2021/09/04 02:09:56;;;;;;;14.93;9.33;;;;;;;10.84;100.00;96325.63;5073726;28;20538;-78
2021/09/04 02:12:22;;;;;;;13.43;8.30;;;;;;;10.78;100.00;96323.63;5073204;28;20067;-77
2021/09/04 02:14:47;;;;;;;11.43;8.50;;;;;;;10.68;100.00;96322.09;5072303;28;20496;-77
2021/09/04 02:17:13;;;;;;;13.87;9.10;;;;;;;10.70;100.00;96323.59;5051778;28;20036;-77
2021/09/04 02:19:39;;;;;;;13.20;8.97;;;;;;;10.77;100.00;96315.91;5079109;28;20459;-77
2021/09/04 02:22:05;;;;;;;13.80;8.50;;;;;;;10.82;100.00;96308.34;5071283;28;20115;-77
2021/09/04 02:24:32;;;;;;;13.97;9.20;;;;;;;10.94;100.00;96317.63;5060184;28;20035;-77
2021/09/04 02:26:59;;;;;;;12.13;7.07;;;;;;;10.91;100.00;96312.66;5069838;28;20028;-78
2021/09/04 02:29:25;;;;;;;12.97;8.67;;;;;;;10.84;100.00;96312.47;5073144;28;20037;-78
2021/09/04 02:31:51;;;;;;;13.90;8.00;;;;;;;10.92;100.00;96309.03;5073853;28;20024;-80
2021/09/04 02:34:17;;;;;;;13.70;8.50;;;;;;;10.94;100.00;96307.09;5089441;28;20029;-77
2021/09/04 02:36:44;;;;;;;12.13;7.20;;;;;;;10.95;100.00;96308.72;5043901;28;20577;-79
2021/09/04 02:39:10;;;;;;;13.17;8.33;;;;;;;10.82;100.00;96309.16;5065381;28;20033;-77
2021/09/04 02:41:38;;;;;;;14.47;8.73;;;;;;;10.70;100.00;96310.47;5075463;28;20028;-77
2021/09/04 02:44:05;;;;;;;12.10;8.40;;;;;;;10.58;100.00;96317.78;5057216;28;20041;-78
2021/09/04 02:46:31;;;;;;;12.20;8.23;;;;;;;10.58;100.00;96317.78;5076952;28;20017;-79
2021/09/04 02:48:59;;;;;;;11.97;8.23;;;;;;;10.67;100.00;96309.94;5060773;28;20047;-78
2021/09/04 02:51:25;;;;;;;14.87;8.97;;;;;;;10.65;100.00;96311.91;5078638;28;20020;-80
2021/09/04 02:53:51;;;;;;;13.90;8.03;;;;;;;10.54;100.00;96315.63;5073401;28;20128;-77
2021/09/04 02:56:17;;;;;;;12.50;8.50;;;;;;;10.53;100.00;96312.19;5058082;28;20033;-79
2021/09/04 02:58:43;;;;;;;12.03;7.73;;;;;;;10.52;100.00;96321.03;5076467;28;20494;-77
2021/09/04 03:01:09;;;;;;;16.60;8.67;;;;;;;10.51;100.00;96316.78;5070666;28;20034;-78
2021/09/04 03:03:35;;;;;;;12.20;7.90;;;;;;;10.41;100.00;96315.25;5069283;28;20452;-77
2021/09/04 03:06:01;;;;;;;12.63;7.73;;;;;;;10.33;100.00;96318.66;5068133;28;20032;-77
2021/09/04 03:08:28;;;;;;;14.40;7.57;;;;;;;10.28;100.00;96320.91;5073909;28;20036;-77
2021/09/04 03:10:54;;;;;;;12.63;8.17;;;;;;;10.25;100.00;96316.75;5075870;28;20479;-77
2021/09/04 03:13:21;;;;;;;11.63;7.57;;;;;;;10.24;100.00;96311.66;5060440;28;20039;-77
2021/09/04 03:15:47;;;;;;;13.47;7.83;;;;;;;10.24;100.00;96309.03;5062376;28;20069;-78
2021/09/04 03:18:13;;;;;;;12.00;7.70;;;;;;;10.23;100.00;96307.38;5078494;28;20104;-77
2021/09/04 03:20:40;;;;;;;12.50;8.07;;;;;;;10.30;100.00;96308.44;5061205;28;20703;-77
2021/09/04 03:23:06;;;;;;;11.43;7.93;;;;;;;10.31;100.00;96305.66;5075016;28;20025;-77
2021/09/04 03:25:33;;;;;;;13.63;7.53;;;;;;;10.31;100.00;96310.91;5075687;28;20016;-78
2021/09/04 03:28:00;;;;;;;12.93;7.30;;;;;;;10.23;100.00;96308.22;5061052;28;20056;-77
2021/09/04 03:30:26;;;;;;;13.80;8.37;;;;;;;10.18;100.00;96307.84;5060396;28;20029;-77
2021/09/04 03:32:52;;;;;;;11.93;7.87;;;;;;;10.17;100.00;96311.47;5080239;28;20025;-77
2021/09/04 03:35:18;;;;;;;12.40;8.10;;;;;;;10.18;100.00;96310.47;5059065;28;20083;-78
2021/09/04 03:37:45;;;;;;;11.97;8.40;;;;;;;10.26;100.00;96317.59;5078694;28;20032;-78
2021/09/04 03:40:11;;;;;;;12.93;9.63;;;;;;;10.23;100.00;96312.63;5049758;28;20079;-77
2021/09/04 03:42:37;;;;;;;14.33;9.07;;;;;;;10.25;100.00;96311.50;5063691;28;20222;-77
2021/09/04 03:45:03;;;;;;;14.00;9.27;;;;;;;10.21;100.00;96309.34;5080840;28;20158;-77
2021/09/04 03:47:30;;;;;;;12.80;9.57;;;;;;;10.12;100.00;96306.66;5060885;28;20025;-77
2021/09/04 03:49:56;;;;;;;13.30;8.90;;;;;;;10.11;100.00;96305.00;5079625;28;20031;-78
2021/09/04 03:52:22;;;;;;;14.87;9.77;;;;;;;10.12;100.00;96308.44;5058882;28;20068;-78
2021/09/04 03:54:49;;;;;;;15.50;10.27;;;;;;;10.08;100.00;96304.50;5057886;28;20104;-78
2021/09/04 03:57:15;;;;;;;12.73;9.00;;;;;;;10.11;100.00;96312.06;5062299;28;20067;-77
2021/09/04 03:59:41;;;;;;;15.97;10.03;;;;;;;10.14;100.00;96312.59;5065583;28;20116;-77
2021/09/04 04:02:07;;;;;;;13.73;10.77;;;;;;;10.14;100.00;96314.38;5074186;28;20040;-78
2021/09/04 04:04:35;;;;;;;14.30;9.60;;;;;;;10.20;100.00;96310.34;5067403;28;20397;-78
2021/09/04 04:07:01;;;;;;;16.87;9.50;;;;;;;10.23;100.00;96305.59;5059042;28;20024;-77
2021/09/04 04:09:29;;;;;;;14.83;9.63;;;;;;;10.20;100.00;96307.69;5062905;28;20036;-77
2021/09/04 04:11:55;;;;;;;13.40;8.77;;;;;;;10.15;100.00;96308.97;5074895;28;20057;-77
2021/09/04 04:14:21;;;;;;;13.37;8.87;;;;;;;10.09;100.00;96301.72;5074981;28;20025;-77
2021/09/04 04:16:48;;;;;;;11.97;8.87;;;;;;;10.05;100.00;96305.63;5068888;28;20115;-77
2021/09/04 04:19:15;;;;;;;12.63;9.60;;;;;;;10.01;100.00;96300.84;5078149;28;20442;-77
2021/09/04 04:21:43;;;;;;;12.17;8.97;;;;;;;9.91;100.00;96296.50;5083322;28;20666;-77
2021/09/04 04:24:08;;;;;;;12.30;8.53;;;;;;;9.94;100.00;96310.31;5071272;28;20115;-78
2021/09/04 04:26:34;;;;;;;11.80;8.70;;;;;;;9.78;100.00;96308.38;5079268;28;20028;-77
2021/09/04 04:29:00;;;;;;;12.60;9.03;;;;;;;9.79;100.00;96307.41;5060213;28;20177;-77
2021/09/04 04:31:26;;;;;;;13.97;9.53;;;;;;;9.71;100.00;96302.91;5078721;28;20046;-77
2021/09/04 04:33:53;;;;;;;12.50;8.23;;;;;;;9.81;100.00;96308.06;5076018;28;20051;-77
2021/09/04 04:36:20;;;;;;;15.90;9.03;;;;;;;9.78;100.00;96309.19;5070517;28;20107;-77
2021/09/04 04:38:46;;;;;;;14.47;9.20;;;;;;;9.68;100.00;96304.03;5078252;28;20083;-77
2021/09/04 04:41:13;;;;;;;13.33;8.37;;;;;;;9.59;100.00;96304.13;5051752;28;20044;-77
2021/09/04 04:43:39;;;;;;;11.47;8.60;;;;;;;9.57;100.00;96306.91;5056213;28;20036;-79
2021/09/04 04:46:05;;;;;;;12.07;7.97;;;;;;;9.62;100.00;96309.91;5071255;28;20037;-77
2021/09/04 04:48:33;;;;;;;14.90;8.67;;;;;;;9.60;100.00;96316.28;5069383;28;20046;-77
2021/09/04 04:50:59;;;;;;;13.10;8.10;;;;;;;9.58;100.00;96310.34;5077114;28;20559;-78
2021/09/04 04:53:24;;;;;;;13.57;8.87;;;;;;;9.56;100.00;96314.94;5073005;28;20028;-76
2021/09/04 04:55:50;;;;;;;13.70;8.77;;;;;;;9.57;100.00;96320.03;5058219;28;20473;-78
2021/09/04 04:58:16;;;;;;;11.57;8.07;;;;;;;9.59;100.00;96315.47;5065363;28;20055;-77
2021/09/04 05:00:42;;;;;;;13.10;8.40;;;;;;;9.64;100.00;96321.06;5054823;28;20036;-77
2021/09/04 05:03:07;;;;;;;11.27;8.77;;;;;;;9.66;100.00;96321.75;5072122;28;20025;-77
2021/09/04 05:05:34;;;;;;;12.77;8.10;;;;;;;9.70;100.00;96326.72;5059982;28;20654;-77
2021/09/04 05:08:01;;;;;;;14.30;8.40;;;;;;;9.76;100.00;96320.81;5079088;28;20020;-78
2021/09/04 05:10:27;;;;;;;13.23;8.80;;;;;;;9.79;100.00;96320.53;5056160;28;20068;-77
2021/09/04 05:12:53;;;;;;;13.27;8.70;;;;;;;9.86;100.00;96327.66;5078359;28;20381;-77
2021/09/04 05:15:19;;;;;;;12.80;8.47;;;;;;;9.94;100.00;96321.63;5055533;28;20056;-76
2021/09/04 05:17:45;;;;;;;14.30;7.97;;;;;;;10.10;100.00;96318.31;5056103;28;20021;-77
2021/09/04 05:20:11;;;;;;;14.03;8.03;;;;;;;10.28;100.00;96321.72;5077894;28;20059;-79
2021/09/04 05:22:42;;;;;;;13.80;8.03;;;;;;;10.55;100.00;96323.34;5075820;28;20020;-78
2021/09/04 05:25:10;;;;;;;11.63;8.17;;;;;;;10.83;100.00;96316.09;5075371;28;20036;-77
2021/09/04 05:27:35;;;;;;;11.50;7.87;;;;;;;11.01;100.00;96316.00;5061049;28;20016;-77
2021/09/04 05:30:01;;;;;;;11.93;7.90;;;;;;;11.05;100.00;96309.41;5060151;28;20039;-76
2021/09/04 05:32:27;;;;;;;11.90;8.60;;;;;;;11.26;100.00;96302.88;5058522;28;20119;-77
2021/09/04 05:34:52;;;;;;;10.57;7.97;;;;;;;11.43;100.00;96311.63;5067018;28;20028;-77
2021/09/04 05:37:19;;;;;;;14.37;9.03;;;;;;;11.47;100.00;96316.44;5058008;28;20044;-78
2021/09/04 05:39:45;;;;;;;12.47;8.70;;;;;;;11.39;100.00;96319.03;5081388;28;20031;-77
2021/09/04 05:42:11;;;;;;;10.90;8.23;;;;;;;11.81;100.00;96310.19;5069478;28;20537;-77
2021/09/04 05:44:37;;;;;;;12.47;8.23;;;;;;;11.74;100.00;96309.22;5070679;28;20036;-77
2021/09/04 05:47:03;;;;;;;13.83;8.07;;;;;;;11.82;100.00;96319.72;5074906;28;20032;-77
2021/09/04 05:49:29;;;;;;;13.40;8.53;;;;;;;12.13;100.00;96319.91;5059093;28;20306;-77
2021/09/04 05:51:55;;;;;;;14.33;7.70;;;;;;;12.32;97.10;96317.91;5069834;28;20082;-79
2021/09/04 05:54:21;;;;;;;11.87;8.50;;;;;;;12.30;97.77;96325.16;5070117;28;20029;-78
2021/09/04 05:56:47;;;;;;;10.77;7.33;;;;;;;12.60;96.72;96323.59;5081543;28;20020;-78
2021/09/04 05:59:12;;;;;;;10.80;7.63;;;;;;;13.06;95.12;96323.75;5053072;28;20067;-78
2021/09/04 06:01:39;;;;;;;18.40;8.03;;;;;;;13.52;92.69;96318.59;5064641;28;20028;-77
2021/09/04 06:04:05;;;;;;;15.60;8.57;;;;;;;13.49;92.41;96321.59;5074691;28;20108;-77
2021/09/04 06:06:30;;;;;;;14.37;8.40;;;;;;;13.54;90.68;96319.22;5055051;28;20032;-78
2021/09/04 06:08:57;;;;;;;10.90;7.00;;;;;;;13.56;92.21;96312.78;5069275;28;20082;-77
2021/09/04 06:11:23;;;;;;;9.97;6.17;;;;;;;14.37;88.33;96311.25;5059472;28;20029;-77
2021/09/04 06:13:48;;;;;;;11.17;7.43;;;;;;;14.82;84.62;96308.63;5069356;28;20389;-76
2021/09/04 06:16:14;;;;;;;12.60;9.00;;;;;;;14.92;82.01;96311.00;5056663;28;20738;-77
2021/09/04 06:18:40;;;;;;;10.67;7.43;;;;;;;14.85;82.08;96308.28;5070430;28;20028;-77
2021/09/04 06:21:05;;;;;;;9.23;6.13;;;;;;;14.32;85.47;96313.63;5052298;28;20074;-79
2021/09/04 06:23:31;;;;;;;11.20;6.43;;;;;;;14.33;85.65;96309.97;5079434;28;20060;-77
2021/09/04 06:25:57;;;;;;;9.63;6.10;;;;;;;14.54;85.20;96311.13;5052379;28;20378;-77
2021/09/04 06:28:22;;;;;;;9.40;6.27;;;;;;;15.11;83.24;96305.13;5076885;28;20393;-77
2021/09/04 06:30:48;;;;;;;10.30;6.30;;;;;;;15.79;79.22;96301.22;5074887;28;20107;-79
2021/09/04 06:33:14;;;;;;;9.33;5.70;;;;;;;16.02;77.34;96292.22;5055241;28;20041;-76
2021/09/04 06:35:39;;;;;;;9.13;6.23;;;;;;;15.95;78.93;96294.00;5051569;28;20115;-78
2021/09/04 06:38:05;;;;;;;9.80;5.97;;;;;;;16.11;78.16;96290.25;5079217;28;20549;-77
2021/09/04 06:40:31;;;;;;;12.00;6.73;;;;;;;16.30;77.23;96304.66;5057966;28;20021;-79
2021/09/04 06:42:57;;;;;;;8.15;5.35;;;;;;;16.56;75.64;96304.84;5060651;28;20043;-79
2021/09/04 06:45:22;;;;;;;8.52;5.47;;;;;;;16.12;76.98;96305.97;5068136;28;20032;-77
2021/09/04 06:47:48;;;;;;;8.95;5.60;;;;;;;16.05;76.41;96305.09;5072156;28;20028;-78
2021/09/04 06:50:14;;;;;;;9.13;6.05;;;;;;;16.22;78.15;96300.31;5077258;28;20031;-77
2021/09/04 06:52:39;;;;;;;8.38;5.80;;;;;;;15.81;77.35;96311.63;5056569;28;20128;-77
2021/09/04 06:55:05;;;;;;;10.10;5.82;;;;;;;16.64;75.98;96303.88;5057862;28;20052;-79
2021/09/04 06:57:32;;;;;;;9.00;5.43;;;;;;;17.48;72.84;96303.66;5069765;28;20061;-77
2021/09/04 06:59:59;;;;;;;8.38;5.47;;;;;;;18.01;70.76;96301.13;5075533;28;20486;-77
2021/09/04 07:02:25;;;;;;;9.23;6.95;;;;;;;19.06;66.55;96288.66;5059276;28;20119;-77
2021/09/04 07:04:50;;;;;;;11.85;8.88;;;;;;;19.11;66.71;96293.34;5073949;28;20102;-77
2021/09/04 07:07:16;;;;;;;10.13;5.63;;;;;;;20.02;63.64;96293.06;5047826;28;20036;-77
2021/09/04 07:09:41;;;;;;;7.63;5.07;;;;;;;19.50;63.31;96296.88;5081532;28;20024;-77
2021/09/04 07:12:08;;;;;;;8.25;5.22;;;;;;;19.91;63.52;96295.59;5065501;28;20132;-77
2021/09/04 07:14:34;;;;;;;8.02;5.03;;;;;;;19.75;61.82;96308.44;5083883;28;20024;-78
2021/09/04 07:16:59;;;;;;;10.63;5.88;;;;;;;19.02;64.61;96300.78;5066938;28;20024;-78
2021/09/04 07:19:25;;;;;;;7.47;5.30;;;;;;;19.48;63.35;96305.09;5087587;28;20039;-78
2021/09/04 07:21:51;;;;;;;7.88;4.82;;;;;;;19.22;63.90;96302.56;5052267;28;20032;-78
2021/09/04 07:24:16;;;;;;;9.50;5.60;;;;;;;19.22;64.66;96307.88;5048992;28;20439;-78
2021/09/04 07:26:42;;;;;;;9.82;5.75;;;;;;;19.13;66.40;96301.16;5072482;28;20036;-77
2021/09/04 07:29:08;;;;;;;10.55;5.80;;;;;;;19.70;64.00;96302.94;5071205;28;20680;-78
2021/09/04 07:31:33;;;;;;;7.55;5.55;;;;;;;20.47;60.66;96306.25;5076248;28;20424;-78
2021/09/04 07:33:59;;;;;;;9.45;5.82;;;;;;;21.29;58.61;96292.63;5062871;28;20025;-78
2021/09/04 07:36:25;;;;;;;8.52;5.75;;;;;;;21.05;57.80;96296.22;5081813;28;20025;-79
2021/09/04 07:38:51;;;;;;;8.55;5.72;;;;;;;20.10;60.66;96305.31;5060033;28;20064;-78
2021/09/04 07:41:16;;;;;;;8.35;5.75;;;;;;;20.73;60.32;96298.22;5075085;28;20028;-78
2021/09/04 07:43:42;;;;;;;9.00;5.50;;;;;;;21.94;56.15;96299.19;5074542;28;20035;-78
2021/09/04 07:46:08;;;;;;;8.80;5.10;;;;;;;22.06;54.08;96306.19;5058792;28;20037;-79
2021/09/04 07:48:33;;;;;;;7.82;5.45;;;;;;;20.53;59.48;96307.25;5050992;28;20146;-78
2021/09/04 07:50:59;;;;;;;9.02;5.43;;;;;;;21.31;58.32;96303.91;5069607;28;20506;-76
2021/09/04 07:53:25;;;;;;;8.07;5.43;;;;;;;21.14;60.04;96300.22;5073729;28;20024;-76
2021/09/04 07:55:50;;;;;;;8.13;5.50;;;;;;;21.14;58.89;96306.38;5059229;28;20123;-77
2021/09/04 07:58:16;;;;;;;9.65;6.30;;;;;;;21.48;57.54;96300.66;5062031;28;20074;-77
2021/09/04 08:00:42;;;;;;;10.07;6.22;;;;;;;21.55;56.03;96301.38;5066478;28;20025;-78
2021/09/04 08:03:08;;;;;;;9.38;6.45;;;;;;;21.68;56.88;96295.03;5073067;28;20090;-77
2021/09/04 08:05:34;;;;;;;9.40;5.78;;;;;;;21.12;58.04;96300.44;5084389;28;20025;-80
2021/09/04 08:07:59;;;;;;;9.18;5.63;;;;;;;21.69;56.85;96297.47;5079778;28;20115;-80
2021/09/04 08:10:25;;;;;;;10.23;5.78;;;;;;;21.42;56.27;96302.38;5079515;28;20033;-82
2021/09/04 08:12:51;;;;;;;8.82;6.15;;;;;;;22.07;56.09;96299.78;5061475;28;20029;-81
2021/09/04 08:15:16;;;;;;;8.77;5.50;;;;;;;21.74;55.63;96294.13;5094976;28;20048;-82
2021/09/04 08:17:42;;;;;;;8.05;5.47;;;;;;;21.59;56.02;96298.00;5071286;28;20090;-81
2021/09/04 08:20:09;;;;;;;7.60;5.28;;;;;;;22.48;53.24;96300.00;5079327;28;20036;-81
2021/09/04 08:22:35;;;;;;;8.27;5.13;;;;;;;22.69;52.47;96307.44;5082750;28;20059;-79
2021/09/04 08:25:01;;;;;;;7.18;4.78;;;;;;;23.79;49.95;96304.88;5072339;28;20043;-79
2021/09/04 08:27:27;;;;;;;7.13;4.55;;;;;;;24.31;48.42;96302.00;5065390;28;20500;-79
2021/09/04 08:29:53;;;;;;;7.93;4.82;;;;;;;24.88;48.20;96296.41;5073469;28;20040;-78
2021/09/04 08:32:20;;;;;;;8.70;4.78;;;;;;;25.17;46.14;96311.38;5065022;28;20692;-78
2021/09/04 08:34:45;;;;;;;9.95;5.03;;;;;;;24.98;47.10;96301.94;5066269;28;20032;-78
2021/09/04 08:37:11;;;;;;;7.03;4.55;;;;;;;24.10;47.79;96304.34;5072538;28;20672;-78
2021/09/04 08:39:37;;;;;;;8.50;4.70;;;;;;;23.80;49.94;96315.38;5070743;28;20402;-78
2021/09/04 08:42:03;;;;;;;10.30;4.95;;;;;;;23.68;49.47;96311.94;5073637;28;20020;-78
2021/09/04 08:44:29;;;;;;;6.30;4.18;;;;;;;25.00;47.51;96305.19;5054329;28;20033;-77
2021/09/04 08:46:55;;;;;;;8.27;4.18;;;;;;;25.96;44.81;96302.06;5054450;28;20082;-78
2021/09/04 08:49:21;;;;;;;7.80;4.68;;;;;;;26.55;43.73;96299.31;5080353;28;20028;-78
2021/09/04 08:51:47;;;;;;;6.47;4.30;;;;;;;26.04;44.17;96308.84;5066703;28;20020;-78
2021/09/04 08:54:16;;;;;;;6.70;4.30;;;;;;;27.34;42.08;96305.72;5074741;28;20036;-78
2021/09/04 08:56:42;;;;;;;6.15;4.00;;;;;;;27.88;40.31;96299.97;5068920;28;20125;-77
2021/09/04 08:59:08;;;;;;;6.90;4.07;;;;;;;27.53;41.50;96313.34;5057575;28;20041;-77
2021/09/04 09:01:34;;;;;;;6.10;3.92;;;;;;;26.98;41.48;96312.81;5072179;28;20028;-77
2021/09/04 09:04:05;;;;;;;6.43;3.80;;;;;;;26.96;42.50;96313.09;5076030;28;20508;-77
2021/09/04 09:06:35;;;;;;;5.75;4.25;;;;;;;26.23;42.54;96310.09;5049433;28;20033;-77
2021/09/04 09:09:15;;;;;;;9.57;4.55;;;;;;;26.68;42.90;96302.66;5071621;28;20052;-79
2021/09/04 09:11:41;;;;;;;6.18;4.30;;;;;;;27.13;41.60;96309.41;5053060;28;20028;-77
2021/09/04 09:14:06;;;;;;;7.60;4.13;;;;;;;27.31;40.51;96303.56;5066326;28;20032;-79
2021/09/04 09:16:32;;;;;;;7.35;4.68;;;;;;;26.46;41.82;96314.34;5072815;28;20490;-78
2021/09/04 09:19:00;;;;;;;11.50;4.68;;;;;;;26.92;40.41;96309.25;5059644;28;20195;-79
2021/09/04 09:21:33;;;;;;;6.43;4.32;;;;;;;28.36;37.54;96305.13;5056159;28;20032;-79
2021/09/04 09:24:15;;;;;;;6.50;4.40;;;;;;;27.93;37.03;96304.56;5070321;28;20034;-79
2021/09/04 09:26:59;;;;;;;7.30;4.13;;;;;;;28.23;37.50;96313.78;5059798;28;20036;-78
2021/09/04 09:29:34;;;;;;;7.05;4.55;;;;;;;28.81;36.48;96304.31;5078209;28;20389;-80
2021/09/04 09:32:09;;;;;;;7.65;4.45;;;;;;;29.52;34.44;96299.78;5049516;28;20477;-79
2021/09/04 09:34:36;;;;;;;6.38;4.35;;;;;;;29.64;34.35;96300.28;5074323;28;20649;-79
2021/09/04 09:37:02;;;;;;;8.10;4.35;;;;;;;27.99;34.97;96303.50;5068746;28;20497;-80
2021/09/04 09:39:34;;;;;;;5.55;3.63;;;;;;;27.47;35.67;96305.25;5065531;28;20199;-79
2021/09/04 09:42:01;;;;;;;6.13;3.85;;;;;;;27.60;35.17;96303.09;5063355;28;20070;-79
2021/09/04 09:44:29;;;;;;;8.55;3.95;;;;;;;25.39;38.35;96313.28;5071105;28;20043;-79
2021/09/04 09:47:07;;;;;;;6.13;3.65;;;;;;;25.63;38.82;96311.91;5063175;28;20028;-79
2021/09/04 09:49:37;;;;;;;6.82;3.78;;;;;;;25.05;38.81;96318.75;5075766;28;20020;-79
2021/09/04 09:52:10;;;;;;;6.10;3.97;;;;;;;24.77;39.30;96316.19;5052411;28;20040;-80
2021/09/04 09:54:37;;;;;;;7.10;3.30;;;;;;;25.32;38.65;96307.25;5078413;28;20493;-79
2021/09/04 09:57:06;;;;;;;5.85;3.72;;;;;;;24.88;40.65;96320.63;5055091;28;20489;-79
2021/09/04 09:59:32;;;;;;;6.55;3.33;;;;;;;26.29;36.24;96306.41;5073141;28;20032;-78
2021/09/04 10:02:04;;;;;;;7.53;4.15;;;;;;;27.33;36.46;96301.41;5071726;28;20391;-79
2021/09/04 10:04:33;;;;;;;7.40;4.20;;;;;;;27.67;34.74;96306.38;5062775;28;20032;-79
2021/09/04 10:07:01;;;;;;;6.57;4.05;;;;;;;28.23;34.25;96302.97;5057812;28;20082;-78
2021/09/04 10:09:28;;;;;;;7.47;4.00;;;;;;;27.35;34.34;96301.94;5077978;28;20032;-78
2021/09/04 10:11:54;;;;;;;6.57;4.05;;;;;;;26.58;36.75;96302.56;5077230;28;20039;-79
2021/09/04 10:14:22;;;;;;;14.45;3.70;;;;;;;27.86;35.85;96298.59;5051981;28;20106;-79
2021/09/04 10:16:53;;;;;;;6.45;4.03;;;;;;;27.01;35.46;96312.28;5051891;28;20058;-79
2021/09/04 10:19:22;;;;;;;8.13;4.25;;;;;;;27.01;36.41;96306.91;5063038;28;20456;-79
2021/09/04 10:21:53;;;;;;;6.38;4.22;;;;;;;26.90;37.32;96295.25;5055247;28;20030;-78
2021/09/04 10:24:18;;;;;;;6.30;3.85;;;;;;;27.81;34.53;96293.22;5056947;28;20036;-79
2021/09/04 10:26:44;;;;;;;6.93;3.80;;;;;;;28.87;32.62;96294.28;5052080;28;20355;-80
2021/09/04 10:29:16;;;;;;;6.00;3.80;;;;;;;28.87;33.04;96287.00;5071945;28;20094;-80
2021/09/04 10:31:57;;;;;;;6.18;3.63;;;;;;;27.85;34.48;96289.69;5059384;28;20674;-78
2021/09/04 10:34:36;;;;;;;5.97;3.53;;;;;;;27.92;34.29;96286.72;5052860;28;20044;-79
2021/09/04 10:37:01;;;;;;;6.22;3.88;;;;;;;26.53;38.68;96293.38;5062583;28;20036;-79
2021/09/04 10:39:59;;;;;;;5.95;3.65;;;;;;;26.47;38.97;96290.88;5072172;28;20034;-79
2021/09/04 10:42:30;;;;;;;6.22;4.13;;;;;;;26.28;38.55;96290.47;5075812;28;20048;-79
2021/09/04 10:45:00;;;;;;;6.15;3.90;;;;;;;28.18;35.52;96292.97;5057121;28;20114;-80
2021/09/04 10:47:26;;;;;;;6.78;3.70;;;;;;;28.19;36.90;96294.59;5062619;28;20103;-80
2021/09/04 10:49:53;;;;;;;5.38;3.45;;;;;;;28.37;35.71;96285.13;5055216;28;20036;-79
2021/09/04 10:52:50;;;;;;;5.75;3.50;;;;;;;28.86;34.40;96287.25;5040957;28;20028;-79
2021/09/04 10:55:23;;;;;;;5.97;3.72;;;;;;;28.62;35.75;96284.31;5059015;28;20054;-79
2021/09/04 10:57:51;;;;;;;7.65;3.80;;;;;;;30.26;32.60;96271.69;5065021;28;20036;-78
2021/09/04 11:00:27;;;;;;;5.47;3.83;;;;;;;29.43;32.94;96274.34;5076774;28;20024;-79
2021/09/04 11:03:04;;;;;;;6.75;3.92;;;;;;;28.21;35.69;96276.22;5069445;28;20062;-80
2021/09/04 11:05:43;;;;;;;7.30;4.05;;;;;;;26.20;38.70;96280.16;5073365;28;20143;-79
2021/09/04 11:08:12;;;;;;;6.70;4.07;;;;;;;27.52;37.67;96277.44;5072430;28;20036;-79
2021/09/04 11:10:42;;;;;;;6.75;3.97;;;;;;;27.35;37.50;96274.94;5078362;28;20017;-80
2021/09/04 11:13:14;;;;;;;6.18;3.40;;;;;;;26.68;38.00;96270.28;5060099;28;20040;-79
2021/09/04 11:15:42;;;;;;;7.13;3.85;;;;;;;28.30;36.08;96262.94;5067688;28;20048;-80
2021/09/04 11:18:08;;;;;;;5.85;3.67;;;;;;;28.37;35.99;96264.31;5050579;28;20064;-79
2021/09/04 11:20:44;;;;;;;6.95;3.67;;;;;;;27.24;36.22;96267.88;5070180;28;20021;-79
2021/09/04 11:23:11;;;;;;;6.68;3.90;;;;;;;28.01;35.57;96254.59;5058668;28;20036;-79